This is the latest recevied weather packets stored in our database for station/object KE1THD. If no packets are shown the sender has not sent any weather packets the latest 10 day(s).
| Time | Temp. | Humidity | Pressure | Rain* | Wind** | Luminosity | Snow |
|---|---|---|---|---|---|---|---|
| 1777880200 | 10° C | 77% | 1005.2 hPa | 0 mm | - | 0 W/m² | - |
| 1777879898 | 10° C | 77% | 1005.2 hPa | 0 mm | - | 0 W/m² | - |
| 1777879596 | 10° C | 77% | 1005.3 hPa | 0 mm | - | 0 W/m² | - |
| 1777879293 | 10° C | 77% | 1005.2 hPa | 0 mm | - | 0 W/m² | - |
| 1777878990 | 10.56° C | 75% | 1005.1 hPa | 0 mm | - | 0 W/m² | - |
| 1777878687 | 10.56° C | 75% | 1005.4 hPa | 0 mm | - | 0 W/m² | - |
| 1777878384 | 11.11° C | 73% | 1005.3 hPa | 0 mm | - | 0 W/m² | - |
| 1777878080 | 11.11° C | 71% | 1005.1 hPa | 0 mm | - | 0 W/m² | - |
| 1777877776 | 11.11° C | 71% | 1005.4 hPa | 0 mm | - | 0 W/m² | - |
| 1777877474 | 11.11° C | 72% | 1005.3 hPa | 0 mm | - | 0 W/m² | - |
| 1777877170 | 10.56° C | 74% | 1005.7 hPa | 0 mm | - | 0 W/m² | - |
| 1777876868 | 11.11° C | 75% | 1005.4 hPa | 0 mm | - | 0 W/m² | - |
| 1777876565 | 11.67° C | 71% | 1005.5 hPa | 0 mm | - | 0 W/m² | - |
| 1777876263 | 11.67° C | 72% | 1005.7 hPa | 0 mm | - | 0 W/m² | - |
| 1777875958 | 11.67° C | 69% | 1005.7 hPa | 0 mm | - | 0 W/m² | - |
| 1777875654 | 12.22° C | 68% | 1005.8 hPa | 0 mm | - | 0 W/m² | - |
| 1777875351 | 12.78° C | 66% | 1005.8 hPa | 0 mm | - | 0 W/m² | - |
| 1777875048 | 12.78° C | 66% | 1005.9 hPa | 0 mm | - | 0 W/m² | - |
| 1777874744 | 12.78° C | 65% | 1006 hPa | 0 mm | - | 0 W/m² | - |
| 1777874440 | 12.78° C | 65% | 1005.9 hPa | 0 mm | - | 0 W/m² | - |
| 1777874139 | 13.33° C | 65% | 1006.1 hPa | 0 mm | - | 0 W/m² | - |
| 1777873836 | 13.89° C | 62% | 1006.1 hPa | 0 mm | - | 0 W/m² | - |
| 1777873532 | 13.89° C | 62% | 1006.2 hPa | 0 mm | - | 0 W/m² | - |
| 1777873230 | 13.89° C | 62% | 1006.2 hPa | 0 mm | - | 0 W/m² | - |
| 1777872926 | 13.89° C | 61% | 1006.1 hPa | 0 mm | - | 0 W/m² | - |
* Rain latest hour (hover to see other rain measurements)
** Current wind speed in m/s (hover to see current wind gust speed)